sensor_id;sensor_type;location;lat;lon;timestamp;temperature;humidity
48666;DHT22;34452;50.796;4.994;2022-12-18T00:00:47;-5.40;99.90
48666;DHT22;34452;50.796;4.994;2022-12-18T00:03:14;-5.30;99.90
48666;DHT22;34452;50.796;4.994;2022-12-18T00:05:50;-5.30;99.90
48666;DHT22;34452;50.796;4.994;2022-12-18T00:08:17;-5.40;99.90
48666;DHT22;34452;50.796;4.994;2022-12-18T00:10:44;-5.40;99.90
48666;DHT22;34452;50.796;4.994;2022-12-18T00:13:11;-5.30;99.90
48666;DHT22;34452;50.796;4.994;2022-12-18T00:15:38;-5.20;99.90
48666;DHT22;34452;50.796;4.994;2022-12-18T00:18:04;-5.10;99.90
48666;DHT22;34452;50.796;4.994;2022-12-18T00:20:30;-5.10;99.90
48666;DHT22;34452;50.796;4.994;2022-12-18T00:22:56;-5.10;99.90
48666;DHT22;34452;50.796;4.994;2022-12-18T00:25:22;-5.20;99.90
48666;DHT22;34452;50.796;4.994;2022-12-18T00:27:48;-5.40;99.90
48666;DHT22;34452;50.796;4.994;2022-12-18T00:30:14;-5.30;99.90
48666;DHT22;34452;50.796;4.994;2022-12-18T00:32:39;-5.30;99.90
48666;DHT22;34452;50.796;4.994;2022-12-18T00:35:06;-5.40;99.90
48666;DHT22;34452;50.796;4.994;2022-12-18T00:37:33;-5.50;99.90
48666;DHT22;34452;50.796;4.994;2022-12-18T00:39:59;-5.60;99.90
48666;DHT22;34452;50.796;4.994;2022-12-18T00:42:25;-5.60;99.90
48666;DHT22;34452;50.796;4.994;2022-12-18T00:45:10;-5.60;99.90
48666;DHT22;34452;50.796;4.994;2022-12-18T00:47:35;-5.60;99.90
48666;DHT22;34452;50.796;4.994;2022-12-18T00:50:01;-5.70;99.90
48666;DHT22;34452;50.796;4.994;2022-12-18T00:52:27;-5.60;99.90
48666;DHT22;34452;50.796;4.994;2022-12-18T00:54:52;-5.70;99.90
48666;DHT22;34452;50.796;4.994;2022-12-18T00:57:18;-5.60;99.90
48666;DHT22;34452;50.796;4.994;2022-12-18T00:59:44;-5.60;99.90
48666;DHT22;34452;50.796;4.994;2022-12-18T01:02:10;-5.70;99.90
48666;DHT22;34452;50.796;4.994;2022-12-18T01:04:36;-5.60;99.90
48666;DHT22;34452;50.796;4.994;2022-12-18T01:07:02;-5.60;99.90
48666;DHT22;34452;50.796;4.994;2022-12-18T01:09:27;-5.50;99.90
48666;DHT22;34452;50.796;4.994;2022-12-18T01:11:53;-5.40;99.90
48666;DHT22;34452;50.796;4.994;2022-12-18T01:14:19;-5.40;99.90
48666;DHT22;34452;50.796;4.994;2022-12-18T01:16:44;-5.40;99.90
48666;DHT22;34452;50.796;4.994;2022-12-18T01:19:10;-5.60;99.90
48666;DHT22;34452;50.796;4.994;2022-12-18T01:21:36;-5.70;99.90
48666;DHT22;34452;50.796;4.994;2022-12-18T01:24:01;-5.70;99.90
48666;DHT22;34452;50.796;4.994;2022-12-18T01:26:28;-5.70;99.90
48666;DHT22;34452;50.796;4.994;2022-12-18T01:28:55;-5.70;99.90
48666;DHT22;34452;50.796;4.994;2022-12-18T01:31:25;-5.60;99.90
48666;DHT22;34452;50.796;4.994;2022-12-18T01:33:52;-5.50;99.90
48666;DHT22;34452;50.796;4.994;2022-12-18T01:36:18;-5.40;99.90
48666;DHT22;34452;50.796;4.994;2022-12-18T01:38:45;-5.50;99.90
48666;DHT22;34452;50.796;4.994;2022-12-18T01:41:11;-5.40;99.90
48666;DHT22;34452;50.796;4.994;2022-12-18T01:46:12;-5.30;99.90
48666;DHT22;34452;50.796;4.994;2022-12-18T01:48:38;-5.40;99.90
48666;DHT22;34452;50.796;4.994;2022-12-18T01:51:05;-5.40;99.90
48666;DHT22;34452;50.796;4.994;2022-12-18T01:53:31;-5.40;99.90
48666;DHT22;34452;50.796;4.994;2022-12-18T01:55:58;-5.40;99.90
48666;DHT22;34452;50.796;4.994;2022-12-18T01:58:35;-5.40;99.90
48666;DHT22;34452;50.796;4.994;2022-12-18T02:01:02;-5.50;99.90
48666;DHT22;34452;50.796;4.994;2022-12-18T02:03:28;-5.50;99.90
48666;DHT22;34452;50.796;4.994;2022-12-18T02:14:26;-5.80;99.90
48666;DHT22;34452;50.796;4.994;2022-12-18T02:22:13;-5.80;99.90
48666;DHT22;34452;50.796;4.994;2022-12-18T02:25:13;-5.90;99.90
48666;DHT22;34452;50.796;4.994;2022-12-18T02:27:39;-5.90;99.90
48666;DHT22;34452;50.796;4.994;2022-12-18T02:30:07;-5.70;99.90
48666;DHT22;34452;50.796;4.994;2022-12-18T02:32:46;-5.50;99.90
48666;DHT22;34452;50.796;4.994;2022-12-18T02:35:22;-5.40;99.90
48666;DHT22;34452;50.796;4.994;2022-12-18T02:37:49;-5.40;99.90
48666;DHT22;34452;50.796;4.994;2022-12-18T02:40:17;-5.30;99.90
48666;DHT22;34452;50.796;4.994;2022-12-18T02:42:43;-5.20;99.90
48666;DHT22;34452;50.796;4.994;2022-12-18T02:45:10;-5.10;99.90
48666;DHT22;34452;50.796;4.994;2022-12-18T02:47:43;-5.30;99.90
48666;DHT22;34452;50.796;4.994;2022-12-18T02:56:11;-5.60;99.90
48666;DHT22;34452;50.796;4.994;2022-12-18T03:04:07;-5.50;99.90
48666;DHT22;34452;50.796;4.994;2022-12-18T03:06:48;-5.50;99.90
48666;DHT22;34452;50.796;4.994;2022-12-18T03:09:50;-5.40;99.90
48666;DHT22;34452;50.796;4.994;2022-12-18T03:12:24;-5.40;99.90
48666;DHT22;34452;50.796;4.994;2022-12-18T03:17:46;-5.30;99.90
48666;DHT22;34452;50.796;4.994;2022-12-18T03:20:17;-5.20;99.90
48666;DHT22;34452;50.796;4.994;2022-12-18T03:22:46;-5.10;99.90
48666;DHT22;34452;50.796;4.994;2022-12-18T03:25:14;-5.10;99.90
48666;DHT22;34452;50.796;4.994;2022-12-18T03:27:46;-5.20;99.90
48666;DHT22;34452;50.796;4.994;2022-12-18T03:30:14;-5.10;99.90
48666;DHT22;34452;50.796;4.994;2022-12-18T03:32:44;-5.00;99.90
48666;DHT22;34452;50.796;4.994;2022-12-18T03:35:15;-5.10;99.90
48666;DHT22;34452;50.796;4.994;2022-12-18T03:37:43;-5.10;99.90
48666;DHT22;34452;50.796;4.994;2022-12-18T03:40:09;-5.00;99.90
48666;DHT22;34452;50.796;4.994;2022-12-18T03:42:51;-5.20;99.90
48666;DHT22;34452;50.796;4.994;2022-12-18T03:45:26;-5.20;99.90
48666;DHT22;34452;50.796;4.994;2022-12-18T03:48:09;-5.20;99.90
48666;DHT22;34452;50.796;4.994;2022-12-18T03:50:47;-5.30;99.90
48666;DHT22;34452;50.796;4.994;2022-12-18T03:56:00;-5.40;99.90
48666;DHT22;34452;50.796;4.994;2022-12-18T03:58:28;-5.30;99.90
48666;DHT22;34452;50.796;4.994;2022-12-18T04:00:56;-5.30;99.90
48666;DHT22;34452;50.796;4.994;2022-12-18T04:03:25;-5.40;99.90
48666;DHT22;34452;50.796;4.994;2022-12-18T04:05:52;-5.40;99.90
48666;DHT22;34452;50.796;4.994;2022-12-18T04:08:20;-5.50;99.90
48666;DHT22;34452;50.796;4.994;2022-12-18T04:10:47;-5.70;99.90
48666;DHT22;34452;50.796;4.994;2022-12-18T04:13:13;-5.70;99.90
48666;DHT22;34452;50.796;4.994;2022-12-18T04:15:46;-5.70;99.90
48666;DHT22;34452;50.796;4.994;2022-12-18T04:18:12;-5.70;99.90
48666;DHT22;34452;50.796;4.994;2022-12-18T04:20:38;-5.70;99.90
48666;DHT22;34452;50.796;4.994;2022-12-18T04:23:03;-5.60;99.90
48666;DHT22;34452;50.796;4.994;2022-12-18T04:25:29;-5.60;99.90
48666;DHT22;34452;50.796;4.994;2022-12-18T04:27:54;-5.50;99.90
48666;DHT22;34452;50.796;4.994;2022-12-18T04:30:20;-5.40;99.90
48666;DHT22;34452;50.796;4.994;2022-12-18T04:32:46;-5.40;99.90
48666;DHT22;34452;50.796;4.994;2022-12-18T04:35:12;-5.40;99.90
48666;DHT22;34452;50.796;4.994;2022-12-18T04:37:37;-5.40;99.90
48666;DHT22;34452;50.796;4.994;2022-12-18T04:40:03;-5.40;99.90
48666;DHT22;34452;50.796;4.994;2022-12-18T04:42:29;-5.40;99.90
48666;DHT22;34452;50.796;4.994;2022-12-18T04:44:55;-5.50;99.90
48666;DHT22;34452;50.796;4.994;2022-12-18T04:47:20;-5.60;99.90
48666;DHT22;34452;50.796;4.994;2022-12-18T04:49:46;-5.50;99.90
48666;DHT22;34452;50.796;4.994;2022-12-18T04:52:12;-5.60;99.90
48666;DHT22;34452;50.796;4.994;2022-12-18T04:54:37;-5.70;99.90
48666;DHT22;34452;50.796;4.994;2022-12-18T04:57:03;-5.60;99.90
48666;DHT22;34452;50.796;4.994;2022-12-18T04:59:29;-5.60;99.90
48666;DHT22;34452;50.796;4.994;2022-12-18T05:01:54;-5.70;99.90
48666;DHT22;34452;50.796;4.994;2022-12-18T05:04:20;-5.80;99.90
48666;DHT22;34452;50.796;4.994;2022-12-18T05:06:46;-5.90;99.90
48666;DHT22;34452;50.796;4.994;2022-12-18T05:09:12;-6.00;99.90
48666;DHT22;34452;50.796;4.994;2022-12-18T05:11:37;-6.10;99.90
48666;DHT22;34452;50.796;4.994;2022-12-18T05:14:03;-6.20;99.90
48666;DHT22;34452;50.796;4.994;2022-12-18T05:16:29;-6.20;99.90
48666;DHT22;34452;50.796;4.994;2022-12-18T05:18:54;-6.20;99.90
48666;DHT22;34452;50.796;4.994;2022-12-18T05:21:20;-6.20;99.90
48666;DHT22;34452;50.796;4.994;2022-12-18T05:23:46;-6.10;99.90
48666;DHT22;34452;50.796;4.994;2022-12-18T05:26:16;-6.20;99.90
48666;DHT22;34452;50.796;4.994;2022-12-18T05:28:42;-6.20;99.90
48666;DHT22;34452;50.796;4.994;2022-12-18T05:31:08;-6.30;99.90
48666;DHT22;34452;50.796;4.994;2022-12-18T05:33:35;-6.20;99.90
48666;DHT22;34452;50.796;4.994;2022-12-18T05:36:02;-6.10;99.90
48666;DHT22;34452;50.796;4.994;2022-12-18T05:38:29;-6.10;99.90
48666;DHT22;34452;50.796;4.994;2022-12-18T05:40:55;-6.00;99.90
48666;DHT22;34452;50.796;4.994;2022-12-18T05:43:22;-6.00;99.90
48666;DHT22;34452;50.796;4.994;2022-12-18T05:45:49;-6.00;99.90
48666;DHT22;34452;50.796;4.994;2022-12-18T05:48:14;-6.10;99.90
48666;DHT22;34452;50.796;4.994;2022-12-18T05:50:42;-6.10;99.90
48666;DHT22;34452;50.796;4.994;2022-12-18T05:53:12;-6.10;99.90
48666;DHT22;34452;50.796;4.994;2022-12-18T05:55:39;-6.10;99.90
48666;DHT22;34452;50.796;4.994;2022-12-18T05:58:07;-6.10;99.90
48666;DHT22;34452;50.796;4.994;2022-12-18T06:00:35;-6.20;99.90
48666;DHT22;34452;50.796;4.994;2022-12-18T06:03:01;-6.20;99.90
48666;DHT22;34452;50.796;4.994;2022-12-18T06:05:27;-6.20;99.90
48666;DHT22;34452;50.796;4.994;2022-12-18T06:07:53;-6.20;99.90
48666;DHT22;34452;50.796;4.994;2022-12-18T06:10:19;-6.20;99.90
48666;DHT22;34452;50.796;4.994;2022-12-18T06:12:45;-6.20;99.90
48666;DHT22;34452;50.796;4.994;2022-12-18T06:15:11;-6.10;99.90
48666;DHT22;34452;50.796;4.994;2022-12-18T06:17:37;-6.10;99.90
48666;DHT22;34452;50.796;4.994;2022-12-18T06:20:03;-6.10;99.90
48666;DHT22;34452;50.796;4.994;2022-12-18T06:22:31;-6.10;99.90
48666;DHT22;34452;50.796;4.994;2022-12-18T06:24:57;-6.10;99.90
48666;DHT22;34452;50.796;4.994;2022-12-18T06:27:23;-6.20;99.90
48666;DHT22;34452;50.796;4.994;2022-12-18T06:29:48;-6.30;99.90
48666;DHT22;34452;50.796;4.994;2022-12-18T06:32:14;-6.30;99.90
48666;DHT22;34452;50.796;4.994;2022-12-18T06:34:40;-6.30;99.90
48666;DHT22;34452;50.796;4.994;2022-12-18T06:37:06;-6.30;99.90
48666;DHT22;34452;50.796;4.994;2022-12-18T06:39:31;-6.20;99.90
48666;DHT22;34452;50.796;4.994;2022-12-18T06:41:57;-6.20;99.90
48666;DHT22;34452;50.796;4.994;2022-12-18T06:44:23;-6.30;99.90
48666;DHT22;34452;50.796;4.994;2022-12-18T06:46:48;-6.20;99.90
48666;DHT22;34452;50.796;4.994;2022-12-18T06:49:14;-6.30;99.90
48666;DHT22;34452;50.796;4.994;2022-12-18T06:51:41;-6.20;99.90
48666;DHT22;34452;50.796;4.994;2022-12-18T06:54:07;-6.20;99.90
48666;DHT22;34452;50.796;4.994;2022-12-18T06:56:33;-6.20;99.90
48666;DHT22;34452;50.796;4.994;2022-12-18T06:58:59;-6.20;99.90
48666;DHT22;34452;50.796;4.994;2022-12-18T07:01:24;-6.20;99.90
48666;DHT22;34452;50.796;4.994;2022-12-18T07:03:54;-6.20;99.90
48666;DHT22;34452;50.796;4.994;2022-12-18T07:06:22;-6.30;99.90
48666;DHT22;34452;50.796;4.994;2022-12-18T07:08:49;-6.40;99.90
48666;DHT22;34452;50.796;4.994;2022-12-18T07:11:17;-6.40;99.90
48666;DHT22;34452;50.796;4.994;2022-12-18T07:13:43;-6.40;99.90
48666;DHT22;34452;50.796;4.994;2022-12-18T07:16:13;-6.40;99.90
48666;DHT22;34452;50.796;4.994;2022-12-18T07:18:39;-6.40;99.90
48666;DHT22;34452;50.796;4.994;2022-12-18T07:21:14;-6.40;99.90
48666;DHT22;34452;50.796;4.994;2022-12-18T07:23:40;-6.30;99.90
48666;DHT22;34452;50.796;4.994;2022-12-18T07:26:11;-6.20;99.90
48666;DHT22;34452;50.796;4.994;2022-12-18T07:28:38;-6.30;99.90
48666;DHT22;34452;50.796;4.994;2022-12-18T07:31:09;-6.30;99.90
48666;DHT22;34452;50.796;4.994;2022-12-18T07:33:35;-6.30;99.90
48666;DHT22;34452;50.796;4.994;2022-12-18T07:36:03;-6.40;99.90
48666;DHT22;34452;50.796;4.994;2022-12-18T07:38:30;-6.40;99.90
48666;DHT22;34452;50.796;4.994;2022-12-18T07:41:08;-6.30;99.90
48666;DHT22;34452;50.796;4.994;2022-12-18T07:43:34;-6.30;99.90
48666;DHT22;34452;50.796;4.994;2022-12-18T07:46:00;-6.20;99.90
48666;DHT22;34452;50.796;4.994;2022-12-18T07:48:27;-6.20;99.90
48666;DHT22;34452;50.796;4.994;2022-12-18T07:50:53;-6.10;99.90
48666;DHT22;34452;50.796;4.994;2022-12-18T07:53:18;-6.10;99.90
48666;DHT22;34452;50.796;4.994;2022-12-18T07:55:44;-6.10;99.90
48666;DHT22;34452;50.796;4.994;2022-12-18T07:58:10;-6.10;99.90
48666;DHT22;34452;50.796;4.994;2022-12-18T08:00:36;-6.10;99.90
48666;DHT22;34452;50.796;4.994;2022-12-18T08:03:02;-6.00;99.90
48666;DHT22;34452;50.796;4.994;2022-12-18T08:05:28;-6.00;99.90
48666;DHT22;34452;50.796;4.994;2022-12-18T08:07:54;-5.90;99.90
48666;DHT22;34452;50.796;4.994;2022-12-18T08:10:20;-5.90;99.90
48666;DHT22;34452;50.796;4.994;2022-12-18T08:12:49;-5.90;99.90
48666;DHT22;34452;50.796;4.994;2022-12-18T08:15:15;-5.80;99.90
48666;DHT22;34452;50.796;4.994;2022-12-18T08:17:41;-5.90;99.90
48666;DHT22;34452;50.796;4.994;2022-12-18T08:20:07;-5.90;99.90
48666;DHT22;34452;50.796;4.994;2022-12-18T08:22:34;-5.90;99.90
48666;DHT22;34452;50.796;4.994;2022-12-18T08:25:03;-5.90;99.90
48666;DHT22;34452;50.796;4.994;2022-12-18T08:27:30;-5.80;99.90
48666;DHT22;34452;50.796;4.994;2022-12-18T08:29:56;-5.70;99.90
48666;DHT22;34452;50.796;4.994;2022-12-18T08:32:22;-5.70;99.90
48666;DHT22;34452;50.796;4.994;2022-12-18T08:34:48;-5.70;99.90
48666;DHT22;34452;50.796;4.994;2022-12-18T08:37:13;-5.60;99.90
48666;DHT22;34452;50.796;4.994;2022-12-18T08:39:39;-5.50;99.90
48666;DHT22;34452;50.796;4.994;2022-12-18T08:42:05;-5.50;99.90
48666;DHT22;34452;50.796;4.994;2022-12-18T08:44:53;-5.40;99.90
48666;DHT22;34452;50.796;4.994;2022-12-18T08:47:19;-5.30;99.90
48666;DHT22;34452;50.796;4.994;2022-12-18T08:49:45;-5.10;99.90
48666;DHT22;34452;50.796;4.994;2022-12-18T08:52:10;-5.00;99.90
48666;DHT22;34452;50.796;4.994;2022-12-18T08:54:36;-4.80;99.90
48666;DHT22;34452;50.796;4.994;2022-12-18T08:57:02;-4.70;99.90
48666;DHT22;34452;50.796;4.994;2022-12-18T08:59:28;-4.60;99.90
48666;DHT22;34452;50.796;4.994;2022-12-18T09:01:53;-4.50;99.90
48666;DHT22;34452;50.796;4.994;2022-12-18T09:04:19;-4.40;99.90
48666;DHT22;34452;50.796;4.994;2022-12-18T09:06:46;-4.30;99.90
48666;DHT22;34452;50.796;4.994;2022-12-18T09:09:11;-4.30;99.90
48666;DHT22;34452;50.796;4.994;2022-12-18T09:11:37;-4.20;99.90
48666;DHT22;34452;50.796;4.994;2022-12-18T09:14:03;-4.20;99.90
48666;DHT22;34452;50.796;4.994;2022-12-18T09:16:29;-4.20;99.90
48666;DHT22;34452;50.796;4.994;2022-12-18T09:18:56;-4.20;99.90
48666;DHT22;34452;50.796;4.994;2022-12-18T09:21:27;-4.20;99.90
48666;DHT22;34452;50.796;4.994;2022-12-18T09:23:54;-4.10;99.90
48666;DHT22;34452;50.796;4.994;2022-12-18T09:26:24;-4.10;99.90
48666;DHT22;34452;50.796;4.994;2022-12-18T09:28:50;-4.00;99.90
48666;DHT22;34452;50.796;4.994;2022-12-18T09:31:17;-3.90;99.90
48666;DHT22;34452;50.796;4.994;2022-12-18T09:33:43;-3.80;99.90
48666;DHT22;34452;50.796;4.994;2022-12-18T09:36:12;-3.70;99.90
48666;DHT22;34452;50.796;4.994;2022-12-18T09:38:39;-3.60;99.90
48666;DHT22;34452;50.796;4.994;2022-12-18T09:44:01;-3.40;99.90
48666;DHT22;34452;50.796;4.994;2022-12-18T09:46:35;-3.30;99.90
48666;DHT22;34452;50.796;4.994;2022-12-18T09:49:07;-3.10;99.90
48666;DHT22;34452;50.796;4.994;2022-12-18T09:51:43;-3.10;99.90
48666;DHT22;34452;50.796;4.994;2022-12-18T09:54:35;-2.90;99.90
48666;DHT22;34452;50.796;4.994;2022-12-18T09:57:02;-2.90;99.90
48666;DHT22;34452;50.796;4.994;2022-12-18T09:59:36;-2.90;99.90
48666;DHT22;34452;50.796;4.994;2022-12-18T10:02:19;-2.80;99.90
48666;DHT22;34452;50.796;4.994;2022-12-18T10:05:04;-2.70;99.90
48666;DHT22;34452;50.796;4.994;2022-12-18T10:10:49;-2.40;99.90
48666;DHT22;34452;50.796;4.994;2022-12-18T10:13:26;-2.30;99.90
48666;DHT22;34452;50.796;4.994;2022-12-18T10:16:26;-2.10;99.90
48666;DHT22;34452;50.796;4.994;2022-12-18T10:19:12;-2.10;99.90
48666;DHT22;34452;50.796;4.994;2022-12-18T10:21:48;-2.00;99.90
48666;DHT22;34452;50.796;4.994;2022-12-18T10:26:47;-1.80;99.90
48666;DHT22;34452;50.796;4.994;2022-12-18T10:29:14;-1.80;99.90
48666;DHT22;34452;50.796;4.994;2022-12-18T10:31:41;-1.80;99.90
48666;DHT22;34452;50.796;4.994;2022-12-18T10:34:13;-1.70;99.90
48666;DHT22;34452;50.796;4.994;2022-12-18T10:36:38;-1.60;99.90
48666;DHT22;34452;50.796;4.994;2022-12-18T10:39:33;-1.50;99.90
48666;DHT22;34452;50.796;4.994;2022-12-18T10:42:17;-1.40;99.90
48666;DHT22;34452;50.796;4.994;2022-12-18T10:44:43;-1.40;99.90
48666;DHT22;34452;50.796;4.994;2022-12-18T10:47:14;-1.30;99.90
48666;DHT22;34452;50.796;4.994;2022-12-18T10:49:51;-1.30;99.90
48666;DHT22;34452;50.796;4.994;2022-12-18T10:52:23;-1.20;99.90
48666;DHT22;34452;50.796;4.994;2022-12-18T10:55:02;-1.20;99.90
48666;DHT22;34452;50.796;4.994;2022-12-18T10:57:38;-1.10;99.90
48666;DHT22;34452;50.796;4.994;2022-12-18T11:00:27;-1.10;99.90
48666;DHT22;34452;50.796;4.994;2022-12-18T11:02:54;-1.10;99.90
48666;DHT22;34452;50.796;4.994;2022-12-18T11:05:33;-1.00;99.90
48666;DHT22;34452;50.796;4.994;2022-12-18T11:08:00;-1.00;99.90
48666;DHT22;34452;50.796;4.994;2022-12-18T11:10:32;-0.90;99.90
48666;DHT22;34452;50.796;4.994;2022-12-18T11:13:23;-0.80;99.90
48666;DHT22;34452;50.796;4.994;2022-12-18T11:15:49;-0.70;99.90
48666;DHT22;34452;50.796;4.994;2022-12-18T11:18:36;-0.60;99.90
48666;DHT22;34452;50.796;4.994;2022-12-18T11:21:08;-0.50;99.90
48666;DHT22;34452;50.796;4.994;2022-12-18T11:23:34;-0.30;99.90
48666;DHT22;34452;50.796;4.994;2022-12-18T11:26:03;-0.20;99.90
48666;DHT22;34452;50.796;4.994;2022-12-18T11:28:43;-0.20;99.90
48666;DHT22;34452;50.796;4.994;2022-12-18T11:31:27;-0.10;99.90
48666;DHT22;34452;50.796;4.994;2022-12-18T11:34:00;0.00;99.90
48666;DHT22;34452;50.796;4.994;2022-12-18T11:36:49;0.00;99.90
48666;DHT22;34452;50.796;4.994;2022-12-18T11:39:24;0.00;99.90
48666;DHT22;34452;50.796;4.994;2022-12-18T11:42:01;0.00;99.90
48666;DHT22;34452;50.796;4.994;2022-12-18T11:47:25;0.00;99.90
48666;DHT22;34452;50.796;4.994;2022-12-18T11:49:53;0.10;99.90
48666;DHT22;34452;50.796;4.994;2022-12-18T11:52:24;0.00;99.90
48666;DHT22;34452;50.796;4.994;2022-12-18T11:54:52;0.10;99.90
48666;DHT22;34452;50.796;4.994;2022-12-18T12:00:11;0.20;99.90
48666;DHT22;34452;50.796;4.994;2022-12-18T12:03:06;0.30;99.90
48666;DHT22;34452;50.796;4.994;2022-12-18T12:14:34;0.40;99.90
48666;DHT22;34452;50.796;4.994;2022-12-18T12:20:17;0.50;99.90
48666;DHT22;34452;50.796;4.994;2022-12-18T12:25:39;0.60;99.90
48666;DHT22;34452;50.796;4.994;2022-12-18T12:36:00;0.70;99.90
48666;DHT22;34452;50.796;4.994;2022-12-18T12:38:41;0.80;99.90
48666;DHT22;34452;50.796;4.994;2022-12-18T12:41:13;0.90;99.90
48666;DHT22;34452;50.796;4.994;2022-12-18T12:44:01;0.90;99.90
48666;DHT22;34452;50.796;4.994;2022-12-18T12:46:32;0.90;99.90
48666;DHT22;34452;50.796;4.994;2022-12-18T12:49:02;0.90;99.90
48666;DHT22;34452;50.796;4.994;2022-12-18T12:51:34;0.90;99.90
48666;DHT22;34452;50.796;4.994;2022-12-18T12:54:03;1.00;99.90
48666;DHT22;34452;50.796;4.994;2022-12-18T12:56:50;1.00;99.90
48666;DHT22;34452;50.796;4.994;2022-12-18T13:07:29;1.00;99.90
48666;DHT22;34452;50.796;4.994;2022-12-18T13:13:00;1.00;99.90
48666;DHT22;34452;50.796;4.994;2022-12-18T13:15:49;1.10;99.90
48666;DHT22;34452;50.796;4.994;2022-12-18T13:18:22;1.20;99.90
48666;DHT22;34452;50.796;4.994;2022-12-18T13:25:50;1.30;99.90
48666;DHT22;34452;50.796;4.994;2022-12-18T13:28:49;1.30;99.90
48666;DHT22;34452;50.796;4.994;2022-12-18T13:31:09;1.40;99.90
48666;DHT22;34452;50.796;4.994;2022-12-18T13:36:01;1.50;99.90
48666;DHT22;34452;50.796;4.994;2022-12-18T13:38:40;1.40;99.90
48666;DHT22;34452;50.796;4.994;2022-12-18T13:43:46;1.50;99.90
48666;DHT22;34452;50.796;4.994;2022-12-18T13:46:45;1.50;99.90
48666;DHT22;34452;50.796;4.994;2022-12-18T13:51:50;1.50;99.90
48666;DHT22;34452;50.796;4.994;2022-12-18T13:54:22;1.40;99.90
48666;DHT22;34452;50.796;4.994;2022-12-18T13:56:50;1.50;99.90
48666;DHT22;34452;50.796;4.994;2022-12-18T13:59:17;1.50;99.90
48666;DHT22;34452;50.796;4.994;2022-12-18T14:04:22;1.50;99.90
48666;DHT22;34452;50.796;4.994;2022-12-18T14:06:55;1.50;99.90
48666;DHT22;34452;50.796;4.994;2022-12-18T14:09:29;1.50;99.90
48666;DHT22;34452;50.796;4.994;2022-12-18T14:11:56;1.50;99.90
48666;DHT22;34452;50.796;4.994;2022-12-18T14:14:48;1.50;99.90
48666;DHT22;34452;50.796;4.994;2022-12-18T14:17:15;1.50;99.90
48666;DHT22;34452;50.796;4.994;2022-12-18T14:19:44;1.50;99.90
48666;DHT22;34452;50.796;4.994;2022-12-18T14:22:25;1.50;99.90
48666;DHT22;34452;50.796;4.994;2022-12-18T14:25:19;1.40;99.90
48666;DHT22;34452;50.796;4.994;2022-12-18T14:30:36;1.40;99.90
48666;DHT22;34452;50.796;4.994;2022-12-18T14:33:10;1.30;99.90
48666;DHT22;34452;50.796;4.994;2022-12-18T14:35:39;1.30;99.90
48666;DHT22;34452;50.796;4.994;2022-12-18T14:38:33;1.30;99.90
48666;DHT22;34452;50.796;4.994;2022-12-18T14:43:27;1.30;99.90
48666;DHT22;34452;50.796;4.994;2022-12-18T14:45:54;1.30;99.90
48666;DHT22;34452;50.796;4.994;2022-12-18T14:48:41;1.30;99.90
48666;DHT22;34452;50.796;4.994;2022-12-18T14:51:17;1.30;99.90
48666;DHT22;34452;50.796;4.994;2022-12-18T14:53:45;1.40;99.90
48666;DHT22;34452;50.796;4.994;2022-12-18T14:56:21;1.40;99.90
48666;DHT22;34452;50.796;4.994;2022-12-18T14:59:02;1.30;99.90
48666;DHT22;34452;50.796;4.994;2022-12-18T15:01:34;1.30;99.90
48666;DHT22;34452;50.796;4.994;2022-12-18T15:04:02;1.40;99.90
48666;DHT22;34452;50.796;4.994;2022-12-18T15:06:36;1.40;99.90
48666;DHT22;34452;50.796;4.994;2022-12-18T15:09:25;1.30;99.90
48666;DHT22;34452;50.796;4.994;2022-12-18T15:12:01;1.30;99.90
48666;DHT22;34452;50.796;4.994;2022-12-18T15:16:56;1.30;99.90
48666;DHT22;34452;50.796;4.994;2022-12-18T15:19:48;1.30;99.90
48666;DHT22;34452;50.796;4.994;2022-12-18T15:22:24;1.30;99.90
48666;DHT22;34452;50.796;4.994;2022-12-18T15:24:51;1.30;99.90
48666;DHT22;34452;50.796;4.994;2022-12-18T15:32:35;1.20;99.90
48666;DHT22;34452;50.796;4.994;2022-12-18T15:37:28;1.20;99.90
48666;DHT22;34452;50.796;4.994;2022-12-18T15:39:54;1.20;99.90
48666;DHT22;34452;50.796;4.994;2022-12-18T15:42:20;1.20;99.90
48666;DHT22;34452;50.796;4.994;2022-12-18T15:45:04;1.20;99.90
48666;DHT22;34452;50.796;4.994;2022-12-18T15:47:30;1.20;99.90
48666;DHT22;34452;50.796;4.994;2022-12-18T15:49:56;1.10;99.90
48666;DHT22;34452;50.796;4.994;2022-12-18T15:52:21;1.10;99.90
48666;DHT22;34452;50.796;4.994;2022-12-18T15:54:51;1.10;99.90
48666;DHT22;34452;50.796;4.994;2022-12-18T15:57:35;1.00;99.90
48666;DHT22;34452;50.796;4.994;2022-12-18T16:00:01;1.00;99.90
48666;DHT22;34452;50.796;4.994;2022-12-18T16:02:27;1.00;99.90
48666;DHT22;34452;50.796;4.994;2022-12-18T16:04:54;1.00;99.90
48666;DHT22;34452;50.796;4.994;2022-12-18T16:07:19;1.00;99.90
48666;DHT22;34452;50.796;4.994;2022-12-18T16:09:46;1.10;99.90
48666;DHT22;34452;50.796;4.994;2022-12-18T16:12:24;1.10;99.90
48666;DHT22;34452;50.796;4.994;2022-12-18T16:14:51;1.10;99.90
48666;DHT22;34452;50.796;4.994;2022-12-18T16:17:16;1.10;99.90
48666;DHT22;34452;50.796;4.994;2022-12-18T16:19:43;1.20;99.90
48666;DHT22;34452;50.796;4.994;2022-12-18T16:22:23;1.10;99.90
48666;DHT22;34452;50.796;4.994;2022-12-18T16:24:51;1.10;99.90
48666;DHT22;34452;50.796;4.994;2022-12-18T16:27:17;1.10;99.90
48666;DHT22;34452;50.796;4.994;2022-12-18T16:29:43;1.20;99.90
48666;DHT22;34452;50.796;4.994;2022-12-18T16:32:13;1.20;99.90
48666;DHT22;34452;50.796;4.994;2022-12-18T16:34:39;1.20;99.90
48666;DHT22;34452;50.796;4.994;2022-12-18T16:37:07;1.20;99.90
48666;DHT22;34452;50.796;4.994;2022-12-18T16:39:33;1.30;99.90
48666;DHT22;34452;50.796;4.994;2022-12-18T16:42:01;1.20;99.90
48666;DHT22;34452;50.796;4.994;2022-12-18T16:44:26;1.30;99.90
48666;DHT22;34452;50.796;4.994;2022-12-18T16:46:52;1.30;99.90
48666;DHT22;34452;50.796;4.994;2022-12-18T16:49:19;1.30;99.90
48666;DHT22;34452;50.796;4.994;2022-12-18T16:51:47;1.40;99.90
48666;DHT22;34452;50.796;4.994;2022-12-18T16:54:13;1.40;99.90
48666;DHT22;34452;50.796;4.994;2022-12-18T16:56:39;1.40;99.90
48666;DHT22;34452;50.796;4.994;2022-12-18T16:59:05;1.40;99.90
48666;DHT22;34452;50.796;4.994;2022-12-18T17:01:31;1.40;99.90
48666;DHT22;34452;50.796;4.994;2022-12-18T17:04:00;1.40;99.90
48666;DHT22;34452;50.796;4.994;2022-12-18T17:06:28;1.40;99.90
48666;DHT22;34452;50.796;4.994;2022-12-18T17:08:58;1.40;99.90
48666;DHT22;34452;50.796;4.994;2022-12-18T17:11:25;1.40;99.90
48666;DHT22;34452;50.796;4.994;2022-12-18T17:13:51;1.40;99.90
48666;DHT22;34452;50.796;4.994;2022-12-18T17:16:17;1.40;99.90
48666;DHT22;34452;50.796;4.994;2022-12-18T17:18:43;1.40;99.90
48666;DHT22;34452;50.796;4.994;2022-12-18T17:21:11;1.40;99.90
48666;DHT22;34452;50.796;4.994;2022-12-18T17:23:39;1.40;99.90
48666;DHT22;34452;50.796;4.994;2022-12-18T17:26:06;1.50;99.90
48666;DHT22;34452;50.796;4.994;2022-12-18T17:28:33;1.40;99.90
48666;DHT22;34452;50.796;4.994;2022-12-18T17:30:59;1.50;99.90
48666;DHT22;34452;50.796;4.994;2022-12-18T17:33:26;1.50;99.90
48666;DHT22;34452;50.796;4.994;2022-12-18T17:35:52;1.50;99.90
48666;DHT22;34452;50.796;4.994;2022-12-18T17:38:18;1.50;99.90
48666;DHT22;34452;50.796;4.994;2022-12-18T17:40:44;1.50;99.90
48666;DHT22;34452;50.796;4.994;2022-12-18T17:43:10;1.40;99.90